Time;durP1;ratioP1;P1;durP2;ratioP2;P2;SDS_P1;SDS_P2;PMS_P1;PMS_P2;Temp;Humidity;BMP_temperature;BMP_pressure;BME280_temperature;BME280_humidity;BME280_pressure;Samples;Min_cycle;Max_cycle;Signal;HPM_P1;HPM_P2
2024/04/14 00:03:36;;;;;;;13.35;3.00;;;;;;;6.45;100.00;101212.69;4612087;31;20111;-95
2024/04/14 00:45:42;;;;;;;10.10;1.70;;;;;;;6.35;100.00;101232.59;5078533;24;20503;-86
2024/04/14 00:48:37;;;;;;;10.50;2.13;;;;;;;6.35;100.00;101238.69;4742974;30;20516;-84
2024/04/14 00:51:06;;;;;;;7.38;1.33;;;;;;;6.42;100.00;101233.88;4742826;30;20070;-87
2024/04/14 00:53:35;;;;;;;15.48;2.60;;;;;;;6.42;100.00;101232.09;4762162;30;20032;-86
2024/04/14 00:56:13;;;;;;;15.50;1.63;;;;;;;6.40;100.00;101223.47;4740061;30;20044;-83
2024/04/14 00:58:51;;;;;;;8.73;2.08;;;;;;;6.40;100.00;101220.03;4748943;30;20039;-86
2024/04/14 01:02:33;;;;;;;;;;;;;;;;;;;;;
2024/04/14 01:13:08;;;;;;;14.23;2.03;;;;;;;6.04;100.00;101224.81;4701298;30;20060;-92
2024/04/14 01:15:36;;;;;;;18.75;2.67;;;;;;;6.04;100.00;101220.47;4690735;30;20061;-95
2024/04/14 01:18:18;;;;;;;13.20;1.95;;;;;;;6.03;100.00;101218.75;4698229;30;20056;-94
2024/04/14 01:20:47;;;;;;;8.52;1.45;;;;;;;6.01;100.00;101223.25;4751029;30;20048;-94
2024/04/14 01:23:13;;;;;;;11.43;1.85;;;;;;;5.99;100.00;101222.47;4738800;30;20040;-93
2024/04/14 01:25:39;;;;;;;21.50;2.33;;;;;;;6.06;100.00;101225.59;4737546;30;20071;-90
2024/04/14 01:28:06;;;;;;;11.75;2.45;;;;;;;5.96;100.00;101218.28;4750317;30;20111;-90
2024/04/14 01:30:32;;;;;;;12.25;2.22;;;;;;;6.02;100.00;101222.28;4730992;30;20059;-84
2024/04/14 01:32:58;;;;;;;12.77;2.40;;;;;;;6.02;100.00;101216.22;4749510;30;20079;-85
2024/04/14 01:35:24;;;;;;;15.18;1.75;;;;;;;6.00;100.00;101211.06;4750813;30;20152;-84
2024/04/14 01:37:50;;;;;;;14.73;2.22;;;;;;;5.92;100.00;101203.69;4761514;30;20131;-89
2024/04/14 01:40:19;;;;;;;8.98;1.35;;;;;;;5.89;100.00;101205.63;4761484;30;20042;-90
2024/04/14 01:42:49;;;;;;;13.88;2.63;;;;;;;5.82;100.00;101210.41;4739733;30;20118;-85
2024/04/14 01:45:18;;;;;;;16.90;2.17;;;;;;;5.82;100.00;101213.03;4757628;30;20134;-85
2024/04/14 01:47:44;;;;;;;11.80;2.13;;;;;;;5.81;100.00;101213.97;4730007;30;20052;-84
2024/04/14 01:50:10;;;;;;;13.60;2.20;;;;;;;5.78;100.00;101207.13;4758222;30;20105;-90
2024/04/14 01:52:37;;;;;;;19.38;2.80;;;;;;;5.78;100.00;101216.78;4738397;30;20031;-91
2024/04/14 01:55:03;;;;;;;14.25;1.70;;;;;;;5.78;100.00;101211.53;4739004;30;20105;-86
2024/04/14 01:57:29;;;;;;;16.27;1.58;;;;;;;5.82;100.00;101218.28;4735390;30;20040;-89
2024/04/14 01:59:55;;;;;;;10.80;1.77;;;;;;;5.83;100.00;101212.94;4747828;30;20032;-86
2024/04/14 02:02:21;;;;;;;9.27;1.83;;;;;;;5.87;100.00;101216.22;4754390;30;20472;-84
2024/04/14 02:04:47;;;;;;;14.98;2.25;;;;;;;5.89;100.00;101211.72;4739581;30;20039;-84
2024/04/14 02:07:13;;;;;;;8.02;1.80;;;;;;;5.86;100.00;101211.91;4764560;30;20039;-82
2024/04/14 02:09:39;;;;;;;13.63;1.75;;;;;;;5.82;100.00;101208.63;4761688;30;20036;-82
2024/04/14 02:12:06;;;;;;;13.27;2.00;;;;;;;5.89;100.00;101216.13;4730772;30;20038;-87
2024/04/14 02:14:32;;;;;;;13.43;1.98;;;;;;;5.87;100.00;101210.97;4766601;30;20032;-86
2024/04/14 02:16:58;;;;;;;9.52;2.40;;;;;;;5.88;100.00;101217.91;4740666;30;20035;-83
2024/04/14 02:19:23;;;;;;;8.63;2.47;;;;;;;5.89;100.00;101219.56;4750494;30;20669;-82
2024/04/14 02:21:49;;;;;;;8.57;1.33;;;;;;;5.89;100.00;101208.25;4763140;30;20147;-84
2024/04/14 02:24:15;;;;;;;10.98;1.92;;;;;;;5.89;100.00;101221.38;4757815;30;20398;-85
2024/04/14 02:26:41;;;;;;;14.63;1.83;;;;;;;5.91;100.00;101220.34;4751853;30;20104;-88
2024/04/14 02:29:07;;;;;;;9.32;1.58;;;;;;;5.93;100.00;101215.00;4749165;30;20043;-87
2024/04/14 02:31:35;;;;;;;14.85;3.15;;;;;;;5.98;100.00;101217.31;4752461;30;20043;-85
2024/04/14 02:34:03;;;;;;;9.20;1.50;;;;;;;5.99;100.00;101222.47;4733157;30;20036;-83
2024/04/14 02:36:32;;;;;;;10.52;1.92;;;;;;;6.04;100.00;101215.22;4766306;30;20036;-86
2024/04/14 02:38:58;;;;;;;12.43;1.60;;;;;;;6.13;100.00;101226.06;4750573;30;20437;-86
2024/04/14 02:41:24;;;;;;;12.93;1.80;;;;;;;6.09;100.00;101222.78;4747542;30;20074;-86
2024/04/14 02:43:55;;;;;;;12.77;1.73;;;;;;;6.12;100.00;101222.59;4764309;30;20051;-86
2024/04/14 02:46:21;;;;;;;7.60;1.45;;;;;;;6.12;100.00;101213.88;4765012;30;20083;-85
2024/04/14 02:48:49;;;;;;;12.50;1.73;;;;;;;6.18;100.00;101216.16;4771849;30;20047;-86
2024/04/14 02:51:17;;;;;;;9.07;1.23;;;;;;;6.11;100.00;101212.19;4747930;30;20059;-86
2024/04/14 02:53:42;;;;;;;8.45;1.83;;;;;;;6.14;100.00;101225.13;4743691;30;20040;-89
2024/04/14 02:56:09;;;;;;;5.18;1.30;;;;;;;6.07;100.00;101219.41;4750502;30;20044;-83
2024/04/14 02:58:35;;;;;;;8.65;1.42;;;;;;;6.05;100.00;101209.00;4763775;30;20040;-84
2024/04/14 03:01:02;;;;;;;11.48;1.55;;;;;;;6.02;100.00;101209.16;4733388;30;20120;-86
2024/04/14 03:03:28;;;;;;;7.75;1.05;;;;;;;5.98;100.00;101201.59;4757639;30;20515;-83
2024/04/14 03:06:04;;;;;;;9.63;1.05;;;;;;;5.95;100.00;101208.72;4761824;30;20135;-85
2024/04/14 03:08:30;;;;;;;;;;;;;;;5.89;100.00;101206.47;4766572;30;20081;-85
2024/04/14 03:10:57;;;;;;;7.35;1.27;;;;;;;5.88;100.00;101204.78;4760335;30;19929;-88
2024/04/14 03:13:24;;;;;;;15.45;2.28;;;;;;;5.83;100.00;101201.59;4752611;30;20181;-90
2024/04/14 03:15:51;;;;;;;10.02;2.20;;;;;;;5.87;100.00;101199.63;4737184;30;20109;-88
2024/04/14 03:18:18;;;;;;;9.30;1.15;;;;;;;5.87;100.00;101197.00;4735196;30;20126;-89
2024/04/14 03:21:01;;;;;;;8.60;1.42;;;;;;;5.90;100.00;101196.81;4766012;30;20035;-87
2024/04/14 03:23:27;;;;;;;8.75;1.30;;;;;;;5.84;100.00;101196.25;4744913;30;20043;-86
2024/04/14 03:25:54;;;;;;;18.30;1.48;;;;;;;5.84;100.00;101200.69;4749313;30;20193;-88
2024/04/14 03:28:24;;;;;;;11.93;1.88;;;;;;;5.85;100.00;101207.59;4766929;30;20462;-87
2024/04/14 03:30:51;;;;;;;9.23;1.60;;;;;;;5.82;100.00;101203.38;4749010;30;20062;-87
2024/04/14 03:33:17;;;;;;;9.27;1.08;;;;;;;5.80;100.00;101205.25;4733889;30;20104;-86
2024/04/14 03:35:43;;;;;;;9.77;1.85;;;;;;;5.80;100.00;101207.03;4748114;30;20130;-85
2024/04/14 03:38:09;;;;;;;12.57;2.20;;;;;;;5.77;100.00;101209.84;4732025;30;20159;-87
2024/04/14 03:40:35;;;;;;;8.82;1.45;;;;;;;5.78;100.00;101209.75;4756194;30;20044;-89
2024/04/14 03:43:01;;;;;;;12.25;1.50;;;;;;;5.75;100.00;101207.31;4765756;30;20102;-85
2024/04/14 03:45:27;;;;;;;9.95;1.50;;;;;;;5.74;100.00;101207.41;4749001;30;20055;-84
2024/04/14 03:47:53;;;;;;;15.20;2.00;;;;;;;5.71;100.00;101204.06;4740023;30;20494;-85
2024/04/14 03:50:19;;;;;;;8.52;2.08;;;;;;;5.71;100.00;101211.06;4747814;30;20063;-84
2024/04/14 03:52:47;;;;;;;11.57;2.00;;;;;;;5.70;100.00;101193.66;4733512;30;20040;-85
2024/04/14 03:55:13;;;;;;;9.82;1.08;;;;;;;5.70;100.00;101202.34;4736925;30;20054;-87
2024/04/14 03:57:39;;;;;;;9.00;1.38;;;;;;;5.66;100.00;101189.50;4737413;30;20596;-88
2024/04/14 04:00:05;;;;;;;13.25;1.48;;;;;;;5.68;100.00;101192.91;4744585;30;20039;-85
2024/04/14 04:02:40;;;;;;;11.18;2.00;;;;;;;5.63;100.00;101192.31;4740763;30;20396;-95
2024/04/14 04:05:08;;;;;;;10.20;1.58;;;;;;;5.62;100.00;101188.88;4737800;30;20059;-94
2024/04/14 04:07:35;;;;;;;6.85;1.38;;;;;;;5.57;100.00;101186.50;4749397;30;20115;-94
2024/04/14 04:10:01;;;;;;;7.88;1.23;;;;;;;5.57;100.00;101183.88;4751874;30;20032;-93
2024/04/14 04:12:34;;;;;;;6.43;1.10;;;;;;;5.54;100.00;101181.44;4752283;30;20039;-94
2024/04/14 04:15:03;;;;;;;5.03;1.30;;;;;;;5.54;100.00;101181.44;4743759;30;20051;-96
2024/04/14 04:17:30;;;;;;;10.25;1.00;;;;;;;5.50;100.00;101179.97;4751521;30;20500;-95
2024/04/14 04:19:56;;;;;;;8.07;1.35;;;;;;;5.51;100.00;101184.25;4748994;30;20047;-95
2024/04/14 04:22:22;;;;;;;7.90;1.10;;;;;;;5.48;100.00;101187.06;4732894;30;20118;-94
2024/04/14 04:24:48;;;;;;;8.95;1.02;;;;;;;5.42;100.00;101190.06;4749315;30;20128;-94
2024/04/14 04:27:15;;;;;;;9.45;2.00;;;;;;;5.41;100.00;101185.75;4755828;30;20036;-93
2024/04/14 04:29:41;;;;;;;10.55;1.10;;;;;;;5.39;100.00;101182.38;4745333;30;20039;-93
2024/04/14 04:32:07;;;;;;;7.47;1.75;;;;;;;5.38;100.00;101180.69;4742425;30;20050;-94
2024/04/14 04:34:33;;;;;;;6.32;1.17;;;;;;;5.42;100.00;101184.81;4768998;30;20051;-93
2024/04/14 04:36:59;;;;;;;11.40;2.17;;;;;;;5.42;100.00;101175.19;4751485;30;20040;-93
2024/04/14 04:39:25;;;;;;;7.60;1.05;;;;;;;5.45;100.00;101171.53;4769294;30;20038;-94
2024/04/14 04:41:51;;;;;;;7.13;1.23;;;;;;;5.45;100.00;101174.16;4751553;30;20079;-94
2024/04/14 04:44:18;;;;;;;8.13;0.88;;;;;;;5.43;100.00;101165.53;4748751;30;20047;-94
2024/04/14 04:46:44;;;;;;;14.77;1.88;;;;;;;5.40;100.00;101156.06;4760213;30;20047;-94
2024/04/14 04:49:10;;;;;;;7.85;1.13;;;;;;;5.41;100.00;101155.16;4754645;30;20650;-94
2024/04/14 04:51:36;;;;;;;5.68;1.10;;;;;;;5.39;100.00;101158.78;4739733;30;20058;-94
2024/04/14 04:54:05;;;;;;;5.47;0.93;;;;;;;5.39;100.00;101156.16;4748001;30;20060;-93
2024/04/14 04:56:31;;;;;;;11.35;1.77;;;;;;;5.40;100.00;101158.69;4742335;30;20878;-94
2024/04/14 04:58:57;;;;;;;7.65;1.33;;;;;;;5.42;100.00;101153.34;4751880;30;20076;-94
2024/04/14 05:01:23;;;;;;;8.50;1.63;;;;;;;5.46;100.00;101157.50;4739411;30;20127;-92
2024/04/14 05:03:50;;;;;;;6.50;1.02;;;;;;;5.50;100.00;101156.34;4750992;30;20138;-94
2024/04/14 05:06:16;;;;;;;11.73;1.13;;;;;;;5.47;100.00;101146.06;4739897;30;20043;-93
2024/04/14 05:08:42;;;;;;;5.00;1.17;;;;;;;5.54;100.00;101141.28;4736468;30;20112;-94
2024/04/14 05:11:09;;;;;;;22.80;1.52;;;;;;;5.57;100.00;101144.53;4750220;30;20047;-94
2024/04/14 05:13:35;;;;;;;7.47;1.08;;;;;;;5.56;100.00;101137.63;4753497;30;20070;-96
2024/04/14 05:16:08;;;;;;;6.95;1.10;;;;;;;5.61;100.00;101149.59;4765700;30;20079;-95
2024/04/14 05:18:39;;;;;;;7.05;1.90;;;;;;;5.63;100.00;101145.97;4744645;30;20039;-96
2024/04/14 05:21:08;;;;;;;6.72;1.13;;;;;;;5.65;100.00;101151.97;4760150;30;20039;-94
2024/04/14 05:23:36;;;;;;;5.15;1.42;;;;;;;5.62;100.00;101149.53;4737832;30;20040;-94
2024/04/14 05:26:05;;;;;;;9.48;1.58;;;;;;;5.65;100.00;101151.97;4756302;30;20542;-95
2024/04/14 05:28:31;;;;;;;7.00;0.95;;;;;;;5.62;100.00;101146.91;4753629;30;20044;-93
2024/04/14 05:30:57;;;;;;;11.02;1.42;;;;;;;5.56;100.00;101142.03;4760338;30;20032;-93
2024/04/14 05:33:23;;;;;;;6.72;1.23;;;;;;;5.54;100.00;101157.03;4748742;30;20271;-95
2024/04/14 05:35:57;;;;;;;8.02;2.35;;;;;;;5.55;100.00;101156.06;4745170;30;20047;-94
2024/04/14 05:38:24;;;;;;;4.63;0.80;;;;;;;5.46;100.00;101155.69;4753636;30;20719;-93
2024/04/14 05:40:50;;;;;;;11.20;1.17;;;;;;;5.42;100.00;101153.34;4768282;30;20509;-94
2024/04/14 05:43:18;;;;;;;6.07;1.52;;;;;;;5.41;100.00;101151.69;4766420;30;20072;-93
2024/04/14 05:45:45;;;;;;;5.18;0.88;;;;;;;5.34;100.00;101149.44;4735201;30;20048;-94
2024/04/14 05:48:11;;;;;;;3.67;0.70;;;;;;;5.38;100.00;101138.75;4739179;30;20100;-93
2024/04/14 05:50:37;;;;;;;5.57;1.15;;;;;;;5.40;100.00;101137.72;4739571;30;20486;-93
2024/04/14 05:56:11;;;;;;;10.35;2.15;;;;;;;5.56;100.00;101142.03;4773647;30;20071;-95
2024/04/14 05:58:44;;;;;;;4.75;1.77;;;;;;;5.68;100.00;101141.28;4771157;30;20058;-96
2024/04/14 06:01:10;;;;;;;7.53;1.00;;;;;;;5.82;100.00;101134.31;4753354;30;20048;-94
2024/04/14 06:03:39;;;;;;;5.68;1.00;;;;;;;5.94;100.00;101144.03;4777016;30;20056;-94
2024/04/14 06:17:41;;;;;;;7.60;1.58;;;;;;;6.01;100.00;101144.50;4749914;30;20048;-92
2024/04/14 06:20:08;;;;;;;18.00;2.00;;;;;;;6.04;100.00;101136.47;4766555;30;20040;-96
2024/04/14 06:22:44;;;;;;;10.77;1.40;;;;;;;6.04;100.00;101131.22;4754129;30;20048;-95
2024/04/14 06:25:16;;;;;;;5.90;1.05;;;;;;;6.11;100.00;101128.19;4738183;30;20043;-95
2024/04/14 06:27:54;;;;;;;8.50;1.08;;;;;;;6.20;100.00;101133.72;4758537;30;20139;-95
2024/04/14 06:30:30;;;;;;;9.20;1.08;;;;;;;6.25;100.00;101140.44;4770294;30;20063;-95
2024/04/14 06:32:59;;;;;;;7.85;1.33;;;;;;;6.30;100.00;101147.09;4744332;30;20036;-92
2024/04/14 06:35:26;;;;;;;8.63;1.50;;;;;;;6.35;100.00;101152.06;4727649;30;20047;-95
2024/04/14 06:37:52;;;;;;;7.82;0.70;;;;;;;6.45;100.00;101147.88;4738114;30;20054;-94
2024/04/14 06:40:19;;;;;;;7.53;1.85;;;;;;;6.50;100.00;101141.50;4736954;30;20046;-94
2024/04/14 06:42:46;;;;;;;9.02;1.55;;;;;;;6.53;100.00;101139.50;4747676;30;20185;-94
2024/04/14 06:45:12;;;;;;;8.02;0.98;;;;;;;6.59;100.00;101146.16;4741018;30;20040;-95
2024/04/14 06:47:41;;;;;;;7.20;1.05;;;;;;;6.64;100.00;101149.28;4733573;30;20051;-95
2024/04/14 06:50:14;;;;;;;10.38;1.85;;;;;;;6.64;100.00;101146.66;4734158;30;20036;-96
2024/04/14 06:52:42;;;;;;;9.55;1.30;;;;;;;6.65;100.00;101145.75;4740853;30;20040;-95
2024/04/14 06:55:12;;;;;;;9.50;1.35;;;;;;;6.77;100.00;101148.50;4738811;30;20081;-96
2024/04/14 06:57:39;;;;;;;10.13;1.25;;;;;;;6.89;100.00;101142.44;4764639;30;20040;-95
2024/04/14 07:00:06;;;;;;;6.25;1.10;;;;;;;7.04;100.00;101139.72;4730107;30;20082;-94
2024/04/14 07:02:32;;;;;;;20.48;8.52;;;;;;;7.11;100.00;101148.00;4744294;30;20048;-94
2024/04/14 07:05:01;;;;;;;11.25;3.42;;;;;;;7.34;100.00;101140.34;4747722;30;20511;-94
2024/04/14 07:07:30;;;;;;;32.42;19.02;;;;;;;7.57;100.00;101147.47;4744754;30;20044;-94
2024/04/14 07:10:09;;;;;;;13.48;4.55;;;;;;;7.70;100.00;101141.34;4747013;30;20044;-93
2024/04/14 07:12:38;;;;;;;14.98;2.75;;;;;;;7.99;100.00;101151.63;4740022;30;20049;-95
2024/04/14 07:15:10;;;;;;;19.92;9.43;;;;;;;8.26;100.00;101147.09;4733368;30;20048;-96
2024/04/14 07:18:04;;;;;;;10.27;2.92;;;;;;;8.31;100.00;101145.78;4747372;30;20135;-96
2024/04/14 07:20:30;;;;;;;11.68;4.60;;;;;;;8.23;100.00;101137.63;4755495;30;20039;-95
2024/04/14 07:22:56;;;;;;;12.07;4.78;;;;;;;8.32;100.00;101136.09;4773040;30;20119;-95
2024/04/14 07:26:16;;;;;;;23.50;15.60;;;;;;;8.55;100.00;101137.06;4733532;30;20120;-95
2024/04/14 07:28:50;;;;;;;13.15;6.28;;;;;;;8.74;100.00;101133.06;4759518;30;20033;-96
2024/04/14 07:31:42;;;;;;;14.60;7.70;;;;;;;8.83;100.00;101131.53;4734187;30;20040;-93
2024/04/14 07:34:29;;;;;;;22.70;12.38;;;;;;;8.86;100.00;101136.56;4750651;30;20048;-94
2024/04/14 07:37:13;;;;;;;27.58;16.65;;;;;;;8.95;100.00;101127.13;4755475;30;20070;-96
2024/04/14 07:39:56;;;;;;;11.38;6.10;;;;;;;9.02;100.00;101128.34;4750963;30;20135;-95
2024/04/14 07:42:48;;;;;;;12.32;3.28;;;;;;;9.07;100.00;101133.25;4754091;30;20139;-94
2024/04/14 07:45:30;;;;;;;9.35;1.50;;;;;;;8.95;100.00;101131.56;4762826;30;20050;-92
2024/04/14 07:47:56;;;;;;;9.77;2.55;;;;;;;8.85;100.00;101129.63;4743597;30;20040;-95
2024/04/14 07:50:26;;;;;;;9.85;2.15;;;;;;;8.90;100.00;101130.09;4745663;30;20039;-95
2024/04/14 07:52:53;;;;;;;16.48;4.03;;;;;;;8.90;100.00;101131.91;4760501;30;20040;-94
2024/04/14 07:55:19;;;;;;;10.75;3.72;;;;;;;9.00;100.00;101138.16;4772518;30;20084;-90
2024/04/14 07:57:46;;;;;;;11.40;4.18;;;;;;;9.02;100.00;101127.50;4762688;30;20040;-93
2024/04/14 08:00:12;;;;;;;9.05;1.77;;;;;;;9.04;100.00;101125.59;4748534;30;20044;-96
2024/04/14 08:02:41;;;;;;;10.75;2.75;;;;;;;9.08;100.00;101128.84;4768385;30;20550;-92
2024/04/14 08:05:09;;;;;;;11.93;2.25;;;;;;;8.99;100.00;101117.19;4770828;30;20055;-92
2024/04/14 08:07:35;;;;;;;10.52;3.60;;;;;;;8.80;100.00;101118.59;4760826;30;20047;-95
2024/04/14 08:10:02;;;;;;;12.82;3.53;;;;;;;8.80;100.00;101116.81;4744870;30;20036;-92
2024/04/14 08:12:31;;;;;;;13.45;4.35;;;;;;;8.79;100.00;101119.56;4777133;30;20139;-92
2024/04/14 08:15:11;;;;;;;9.13;2.15;;;;;;;8.80;100.00;101115.94;4735597;30;20556;-95
2024/04/14 08:17:37;;;;;;;7.13;1.35;;;;;;;8.68;100.00;101108.00;4740531;30;20048;-94
2024/04/14 08:20:06;;;;;;;16.20;8.23;;;;;;;8.70;100.00;101110.53;4754111;30;20032;-95
2024/04/14 08:22:41;;;;;;;26.67;15.35;;;;;;;8.68;100.00;101086.91;4751360;30;20616;-95
2024/04/14 08:25:07;;;;;;;11.50;8.27;;;;;;;8.69;100.00;101100.94;4764300;30;20160;-91
2024/04/14 08:27:33;;;;;;;14.20;5.28;;;;;;;8.77;100.00;101101.22;4763521;30;20128;-88
2024/04/14 08:29:59;;;;;;;11.38;5.30;;;;;;;8.78;100.00;101092.34;4750374;30;20044;-83
2024/04/14 08:32:25;;;;;;;6.65;2.53;;;;;;;8.77;100.00;101092.47;4734550;30;20049;-86
2024/04/14 08:34:51;;;;;;;7.47;1.85;;;;;;;8.77;100.00;101082.75;4766469;30;20066;-86
2024/04/14 08:37:16;;;;;;;4.32;1.27;;;;;;;8.87;100.00;101088.16;4738341;30;20039;-90
2024/04/14 08:39:44;;;;;;;8.63;1.40;;;;;;;8.93;100.00;101084.22;4747371;30;20048;-88
2024/04/14 08:42:10;;;;;;;8.70;1.67;;;;;;;8.90;100.00;101089.72;4761128;30;20036;-82
2024/04/14 08:44:37;;;;;;;15.57;5.75;;;;;;;8.98;100.00;101084.69;4744129;30;20052;-81
2024/04/14 08:47:04;;;;;;;10.63;2.03;;;;;;;9.10;100.00;101080.28;4760356;30;20052;-81
2024/04/14 08:49:30;;;;;;;9.55;1.42;;;;;;;9.16;100.00;101071.03;4746482;30;20048;-80
2024/04/14 08:51:58;;;;;;;5.85;1.27;;;;;;;9.34;100.00;101079.34;4751365;30;20036;-81
2024/04/14 08:54:25;;;;;;;9.18;1.13;;;;;;;9.47;100.00;101070.44;4729256;30;20039;-82
2024/04/14 08:57:13;;;;;;;6.35;1.30;;;;;;;9.63;100.00;101068.28;4742952;30;20058;-83
2024/04/14 09:04:22;;;;;;;8.30;1.23;;;;;;;9.82;100.00;101056.22;4760533;30;20046;-81
2024/04/14 09:07:35;;;;;;;8.25;1.58;;;;;;;9.89;100.00;101060.03;4735904;30;20105;-84
2024/04/14 09:10:51;;;;;;;8.27;1.48;;;;;;;10.10;100.00;101058.41;4776050;30;20052;-79
2024/04/14 09:14:32;;;;;;;11.18;1.27;;;;;;;10.24;100.00;101060.75;4683729;30;20553;-78
2024/04/14 09:17:29;;;;;;;7.10;0.70;;;;;;;10.28;100.00;101053.41;4697801;30;20057;-83
2024/04/14 09:20:53;;;;;;;6.75;1.05;;;;;;;10.36;100.00;101039.56;4713927;30;20052;-90
2024/04/14 09:23:44;;;;;;;;;;;;;;;;;;;;;
2024/04/14 09:26:35;;;;;;;10.77;1.65;;;;;;;10.47;100.00;101039.53;4741192;30;20068;-94
2024/04/14 09:29:28;;;;;;;4.88;0.95;;;;;;;10.37;100.00;101039.44;4704955;30;20044;-91
2024/04/14 09:32:34;;;;;;;4.78;1.00;;;;;;;10.32;100.00;101038.16;4742640;30;20028;-95
2024/04/14 09:35:47;;;;;;;5.80;1.38;;;;;;;10.38;100.00;101042.94;4768135;30;20054;-90
2024/04/14 09:38:43;;;;;;;9.80;1.90;;;;;;;10.28;100.00;101041.06;4742791;30;20090;-93
2024/04/14 09:41:29;;;;;;;6.65;1.20;;;;;;;10.24;100.00;101029.03;4729050;30;20043;-95
2024/04/14 09:44:28;;;;;;;8.48;1.30;;;;;;;10.24;100.00;101026.41;4746975;30;20445;-91
2024/04/14 09:47:22;;;;;;;12.90;1.05;;;;;;;10.21;100.00;101024.03;4757536;30;20044;-93
2024/04/14 09:50:00;;;;;;;6.32;1.35;;;;;;;10.24;100.00;101020.31;4748831;30;20517;-91
2024/04/14 09:52:49;;;;;;;7.93;0.95;;;;;;;10.22;100.00;101025.72;4738639;30;20104;-94
2024/04/14 09:55:54;;;;;;;5.15;0.90;;;;;;;10.31;100.00;101021.44;4754968;30;20043;-90
2024/04/14 10:03:09;;;;;;;6.57;1.85;;;;;;;10.46;100.00;101019.38;4769019;30;20139;-88
2024/04/14 10:05:43;;;;;;;5.82;1.35;;;;;;;10.57;100.00;101025.53;4743738;30;20047;-88
2024/04/14 10:08:24;;;;;;;8.15;1.92;;;;;;;10.71;100.00;101017.28;4741407;30;20059;-92
2024/04/14 10:12:02;;;;;;;;;;;;;;;;;;;;;
2024/04/14 10:15:28;;;;;;;5.57;1.15;;;;;;;10.78;100.00;101002.56;4771675;30;20085;-91
2024/04/14 10:18:35;;;;;;;;;;;;;;;;;;;;;
2024/04/14 10:21:22;;;;;;;9.95;1.23;;;;;;;10.86;100.00;101012.47;4764294;30;20043;-88
2024/04/14 10:24:47;;;;;;;8.00;0.90;;;;;;;10.87;100.00;100993.00;4758128;30;20040;-92
2024/04/14 10:31:05;;;;;;;4.03;0.90;;;;;;;11.07;100.00;100998.34;4759934;30;21210;-93
2024/04/14 10:37:04;;;;;;;4.75;0.80;;;;;;;11.25;100.00;100984.50;4760440;30;20130;-90
2024/04/14 10:39:56;;;;;;;8.60;2.22;;;;;;;11.32;100.00;100979.50;4729265;30;20055;-95
2024/04/14 10:42:49;;;;;;;8.23;2.38;;;;;;;11.33;100.00;100981.16;4753805;30;20036;-89
2024/04/14 10:46:03;;;;;;;5.35;1.15;;;;;;;11.37;100.00;100982.59;4771774;30;20051;-91
2024/04/14 10:49:15;;;;;;;7.07;1.17;;;;;;;11.40;100.00;100979.66;4739835;30;20151;-95
2024/04/14 10:56:10;;;;;;;5.43;0.75;;;;;;;11.61;100.00;100971.59;4697652;30;20056;-92
2024/04/14 10:58:40;;;;;;;9.25;0.88;;;;;;;11.65;100.00;100972.16;4682166;30;20052;-90
2024/04/14 11:01:26;;;;;;;5.22;0.75;;;;;;;11.64;100.00;100967.84;4707818;30;20520;-87
2024/04/14 11:25:12;;;;;;;8.45;1.70;;;;;;;11.78;100.00;100938.28;4742771;30;20052;-91
2024/04/14 11:27:51;;;;;;;9.30;2.33;;;;;;;11.86;100.00;100937.59;4700792;30;20071;-91
2024/04/14 11:31:23;;;;;;;6.50;1.50;;;;;;;11.83;100.00;100939.69;4710919;30;20932;-92
2024/04/14 11:37:48;;;;;;;9.35;3.83;;;;;;;11.99;100.00;100933.81;4711609;30;20052;-91
2024/04/14 11:40:38;;;;;;;7.93;3.15;;;;;;;12.04;100.00;100926.25;4706352;30;20088;-86
2024/04/14 11:43:43;;;;;;;15.70;8.35;;;;;;;12.03;100.00;100919.31;4731316;30;20082;-90
2024/04/14 11:46:47;;;;;;;7.43;1.38;;;;;;;12.06;100.00;100910.22;4732666;30;20057;-93
2024/04/14 11:49:52;;;;;;;5.30;1.60;;;;;;;12.02;100.00;100894.63;4741951;30;20049;-93
2024/04/14 11:53:12;;;;;;;7.93;1.00;;;;;;;12.07;100.00;100911.91;4699443;30;20044;-90
2024/04/14 11:56:01;;;;;;;10.00;1.33;;;;;;;11.98;100.00;100901.19;4725486;30;20040;-88
2024/04/14 11:58:54;;;;;;;6.93;0.80;;;;;;;12.04;100.00;100895.31;4700318;30;20045;-94
2024/04/14 12:01:48;;;;;;;6.50;1.20;;;;;;;12.12;100.00;100905.22;4701160;30;20045;-92
2024/04/14 12:05:26;;;;;;;4.65;1.00;;;;;;;12.12;100.00;100889.31;4729060;30;20214;-94
2024/04/14 12:11:56;;;;;;;6.40;0.80;;;;;;;12.08;100.00;100882.66;4711267;30;20074;-90
2024/04/14 12:15:12;;;;;;;7.00;0.95;;;;;;;11.95;100.00;100882.09;4719274;30;20083;-93
2024/04/14 12:18:36;;;;;;;7.30;1.07;;;;;;;11.89;100.00;100865.81;4693423;30;20136;-92
2024/04/14 12:21:35;;;;;;;9.30;1.20;;;;;;;11.90;100.00;100870.09;4705692;30;20109;-89
2024/04/14 12:28:36;;;;;;;3.40;0.60;;;;;;;12.18;100.00;100842.88;4712602;30;20080;-94
2024/04/14 12:31:39;;;;;;;;;;;;;;;;;;;;;
2024/04/14 12:35:00;;;;;;;5.28;1.92;;;;;;;12.21;100.00;100821.41;4728769;30;20051;-92
2024/04/14 12:37:43;;;;;;;8.02;3.13;;;;;;;12.21;100.00;100825.84;4714724;30;20562;-91
2024/04/14 12:40:53;;;;;;;8.73;3.58;;;;;;;12.20;100.00;100817.06;4726908;30;20597;-90
2024/04/14 12:43:46;;;;;;;9.57;2.20;;;;;;;12.29;100.00;100812.72;4729923;30;20054;-95
2024/04/14 12:46:49;;;;;;;6.40;2.75;;;;;;;12.37;100.00;100799.56;4703273;30;20132;-90
2024/04/14 12:49:41;;;;;;;7.68;1.90;;;;;;;12.44;100.00;100797.13;4716603;30;20060;-93
2024/04/14 12:52:30;;;;;;;9.07;1.98;;;;;;;12.44;100.00;100793.66;4731575;30;20056;-90
2024/04/14 12:56:09;;;;;;;3.67;1.20;;;;;;;12.58;100.00;100774.56;4729380;30;20156;-89
2024/04/14 12:58:52;;;;;;;3.42;0.80;;;;;;;12.71;100.00;100782.19;4728686;30;20187;-88
2024/04/14 13:01:20;;;;;;;2.10;0.52;;;;;;;12.65;100.00;100772.16;4731975;30;20519;-90
2024/04/14 13:03:46;;;;;;;7.88;0.93;;;;;;;12.58;100.00;100768.47;4727838;30;20049;-91
2024/04/14 13:06:12;;;;;;;4.88;0.80;;;;;;;12.58;100.00;100757.84;4722935;30;20059;-91
2024/04/14 13:08:37;;;;;;;4.95;0.80;;;;;;;12.51;100.00;100761.09;4712680;30;20051;-91
2024/04/14 13:11:05;;;;;;;5.20;0.63;;;;;;;12.50;100.00;100754.13;4714991;30;20057;-83
2024/04/14 13:13:31;;;;;;;8.70;1.50;;;;;;;12.48;100.00;100752.59;4698705;30;20047;-91
2024/04/14 13:15:57;;;;;;;4.95;0.50;;;;;;;12.55;100.00;100740.41;4704870;30;20044;-91
2024/04/14 13:18:23;;;;;;;4.43;0.93;;;;;;;12.62;100.00;100732.69;4702542;30;20123;-89
2024/04/14 13:20:49;;;;;;;5.07;0.80;;;;;;;12.53;100.00;100732.59;4729615;30;20035;-88
2024/04/14 13:23:18;;;;;;;10.73;1.73;;;;;;;12.44;100.00;100725.56;4734245;30;20040;-82
2024/04/14 13:25:44;;;;;;;4.80;1.60;;;;;;;12.31;100.00;100736.50;4754881;30;20043;-83
2024/04/14 13:28:10;;;;;;;2.08;0.68;;;;;;;12.13;100.00;100752.38;4731423;30;20039;-78
2024/04/14 13:30:36;;;;;;;5.47;0.90;;;;;;;11.85;100.00;100760.28;4731019;30;20036;-80
2024/04/14 13:33:02;;;;;;;4.00;0.90;;;;;;;11.46;100.00;100751.47;4754070;30;20641;-84
2024/04/14 13:35:28;;;;;;;3.28;1.13;;;;;;;11.24;100.00;100750.81;4755722;30;20484;-81
2024/04/14 13:37:53;;;;;;;4.72;0.80;;;;;;;11.07;100.00;100739.09;4736686;30;20036;-87
2024/04/14 13:40:19;;;;;;;5.70;0.90;;;;;;;11.02;100.00;100738.72;4742560;30;20066;-83
2024/04/14 13:42:45;;;;;;;3.35;0.80;;;;;;;11.09;100.00;100739.81;4754080;30;20076;-82
2024/04/14 13:45:11;;;;;;;5.35;0.90;;;;;;;11.09;100.00;100734.53;4730354;30;20058;-83
2024/04/14 13:47:37;;;;;;;7.10;1.40;;;;;;;11.06;100.00;100726.03;4729370;30;20363;-92
2024/04/14 13:50:03;;;;;;;3.92;2.50;;;;;;;11.13;100.00;100725.31;4758185;30;20040;-81
2024/04/14 13:52:29;;;;;;;1.73;1.02;;;;;;;11.16;100.00;100711.00;4743999;30;20422;-83
2024/04/14 13:54:58;;;;;;;5.70;3.35;;;;;;;11.25;100.00;100710.13;4759491;30;20042;-82
2024/04/14 13:57:26;;;;;;;5.32;3.10;;;;;;;11.39;100.00;100694.78;4761638;30;20093;-85
2024/04/14 13:59:52;;;;;;;10.85;5.95;;;;;;;11.46;100.00;100689.75;4754552;30;20381;-83
2024/04/14 14:02:18;;;;;;;5.03;1.98;;;;;;;11.57;100.00;100694.03;4744186;30;20051;-84
2024/04/14 14:04:43;;;;;;;4.38;1.95;;;;;;;11.64;100.00;100682.72;4758526;30;20055;-84